메인 페이지
METAR-TAF:

METAR-TAF

공항 :

Tucumán, 아르헨티나

위도: 26-51S, 경도: 065-06W, 고도: 440m

현재 날씨관측

예보는 54분 전, 19:00시(UTC)에 발표되었습니다.
6kt
온도 10°C
습도 76%
기압 1014 hPa
시정: 6000m
고도 4000ft 상공 흐림

METAR: SANT 171900Z 27006KT 6000 OVC040 10/06 Q1014

시각: 16:54 (19:54 UTC)

예보

예보는 2 시간 54분 전, 17:00시(UTC)에 발표되었습니다.
예보 대상 시간: 17일 18시부터 18일 18시까지 (UTC)
5kt
시정: 7000m
고도 3000ft 상공 구름 보통
고도 5000ft 상공 구름 많음
연기
전환 중
18일 00시부터 18일 03시까지 (UTC)
남남서5kt
시정: 3000m
고도 1500ft 상공 흐림
이슬비, 박무
일시적
90시부터 9/시까지 (UTC)
시정: 0800m
고도 800ft 상공 흐림
안개
전환 중
18일 12시부터 18일 15시까지 (UTC)
남서5kt
시정 10km 이상
고도 3000ft 상공 구름 많음

TAF: SANT 171700Z 1718/1818 09005KT 7000 FU SCT030 BKN050 TX17/1818Z TN08/1812Z BECMG 1800/1803 20005KT 3000 DZ BR OVC015 TEMPO 909/1912 0800 FG OVC008 BECMG 1812/1815 23005KT 9999 BKN030

4,000개 이상의 공항 관측 자료 및 예보 (METAR 및 TAF 보고).

지도상에서 검색 가능한 기상관측소가 노란 점과 빨간 점으로 표시되어 있습니다.

기상관측소 명을 보려면 표시 위로 마우스를 이동하세요.

날씨 관측과 예보를 보려면 클릭하세요.

지도 변경 : 확대하려면 엑스 표시가 있는 녹색 버튼, 축소하려면 빼기 표시가 있는 녹색 버튼, 다음 페이지의 지도를 보려면 녹색 화살표를 클릭하세요.


METAR-TAF: